createdAt,value
2018-03-14T00:00:01.630Z,5.48
2018-03-14T00:02:27.849Z,5.40
2018-03-14T00:04:54.086Z,5.35
2018-03-14T00:07:20.267Z,5.31
2018-03-14T00:09:46.461Z,5.27
2018-03-14T00:12:12.624Z,5.25
2018-03-14T00:14:38.876Z,5.24
2018-03-14T00:17:05.016Z,5.24
2018-03-14T00:19:31.177Z,5.24
2018-03-14T00:21:57.385Z,5.24
2018-03-14T00:24:23.656Z,5.23
2018-03-14T00:26:50.791Z,5.21
2018-03-14T00:29:17.000Z,5.20
2018-03-14T00:31:43.797Z,5.20
2018-03-14T00:34:10.002Z,5.18
2018-03-14T00:36:36.192Z,5.17
2018-03-14T00:39:02.519Z,5.17
2018-03-14T00:41:28.677Z,5.16
2018-03-14T00:43:54.892Z,5.14
2018-03-14T00:46:21.077Z,5.14
2018-03-14T00:48:47.230Z,5.15
2018-03-14T00:51:13.427Z,5.19
2018-03-14T00:53:39.634Z,5.23
2018-03-14T00:56:05.803Z,5.27
2018-03-14T00:58:32.060Z,5.29
2018-03-14T01:00:58.238Z,5.33
2018-03-14T01:03:24.416Z,5.37
2018-03-14T01:05:50.647Z,5.40
2018-03-14T01:08:16.800Z,5.45
2018-03-14T01:10:42.993Z,5.54
2018-03-14T01:13:09.196Z,5.61
2018-03-14T01:15:35.397Z,5.68
2018-03-14T01:18:01.608Z,5.76
2018-03-14T01:20:27.774Z,5.83
2018-03-14T01:22:53.931Z,5.87
2018-03-14T01:25:20.156Z,5.91
2018-03-14T01:27:46.388Z,5.93
2018-03-14T01:30:12.553Z,5.94
2018-03-14T01:32:38.750Z,5.96
2018-03-14T01:35:05.004Z,5.96
2018-03-14T01:37:31.170Z,5.90
2018-03-14T01:39:57.347Z,5.82
2018-03-14T01:42:23.545Z,5.73
2018-03-14T01:44:49.745Z,5.66
2018-03-14T01:47:15.983Z,5.59
2018-03-14T01:49:42.135Z,5.52
2018-03-14T01:52:08.293Z,5.42
2018-03-14T01:54:34.517Z,5.34
2018-03-14T01:57:00.727Z,5.27
2018-03-14T01:59:26.884Z,5.20
2018-03-14T02:01:53.070Z,5.13
2018-03-14T02:04:19.275Z,5.09
2018-03-14T02:06:45.419Z,5.03
2018-03-14T02:09:11.595Z,5.00
2018-03-14T02:11:37.808Z,4.97
2018-03-14T02:14:04.053Z,4.95
2018-03-14T02:16:30.206Z,4.91
2018-03-14T02:18:56.461Z,4.87
2018-03-14T02:21:22.605Z,4.85
2018-03-14T02:23:48.773Z,4.84
2018-03-14T02:26:14.995Z,4.85
2018-03-14T02:28:41.193Z,4.88
2018-03-14T02:31:07.337Z,4.85
2018-03-14T02:33:33.536Z,4.86
2018-03-14T02:35:59.785Z,4.82
2018-03-14T02:38:25.923Z,4.81
2018-03-14T02:40:52.149Z,4.77
2018-03-14T02:43:18.315Z,4.74
2018-03-14T02:45:44.532Z,4.74
2018-03-14T02:48:10.690Z,4.73
2018-03-14T02:50:36.837Z,4.75
2018-03-14T02:53:03.029Z,4.73
2018-03-14T02:55:29.210Z,4.71
2018-03-14T02:57:55.360Z,4.72
2018-03-14T03:00:21.536Z,4.72
2018-03-14T03:02:47.650Z,4.70
2018-03-14T03:05:13.820Z,4.67
2018-03-14T03:07:40.008Z,4.66
2018-03-14T03:10:06.146Z,4.65
2018-03-14T03:12:32.275Z,4.63
2018-03-14T03:14:58.587Z,4.60
2018-03-14T03:17:24.780Z,4.60
2018-03-14T03:19:50.912Z,4.58
2018-03-14T03:22:17.117Z,4.57
2018-03-14T03:24:43.342Z,4.55
2018-03-14T03:27:09.473Z,4.54
2018-03-14T03:29:35.593Z,4.53
2018-03-14T03:32:01.758Z,4.51
2018-03-14T03:34:28.003Z,4.49
2018-03-14T03:36:54.196Z,4.49
2018-03-14T03:39:20.374Z,4.49
2018-03-14T03:41:46.508Z,4.50
2018-03-14T03:44:12.658Z,4.52
2018-03-14T03:46:38.936Z,4.54
2018-03-14T03:49:05.182Z,4.57
2018-03-14T03:51:31.317Z,4.57
2018-03-14T03:53:57.497Z,4.54
2018-03-14T03:56:23.672Z,4.52
2018-03-14T03:58:49.824Z,4.51
2018-03-14T04:01:15.961Z,4.48
2018-03-14T04:03:49.094Z,4.48
2018-03-14T04:06:15.237Z,4.45
2018-03-14T04:08:41.401Z,4.45
2018-03-14T04:11:07.574Z,4.37
2018-03-14T04:13:33.726Z,4.38
2018-03-14T04:15:59.988Z,4.37
2018-03-14T04:18:26.190Z,4.37
2018-03-14T04:20:52.695Z,4.40
2018-03-14T04:23:18.871Z,4.40
2018-03-14T04:25:45.047Z,4.40
2018-03-14T04:28:11.217Z,4.37
2018-03-14T04:30:37.385Z,4.34
2018-03-14T04:33:03.536Z,4.32
2018-03-14T04:35:29.750Z,4.28
2018-03-14T04:37:55.965Z,4.26
2018-03-14T04:40:22.199Z,4.28
2018-03-14T04:42:48.339Z,4.27
2018-03-14T04:45:14.557Z,4.25
2018-03-14T04:47:40.733Z,4.23
2018-03-14T04:50:06.878Z,4.24
2018-03-14T04:52:33.049Z,4.23
2018-03-14T04:54:59.255Z,4.22
2018-03-14T04:57:25.438Z,4.19
2018-03-14T04:59:51.584Z,4.20
2018-03-14T05:02:17.817Z,4.20
2018-03-14T05:04:43.986Z,4.20
2018-03-14T05:07:10.141Z,4.22
2018-03-14T05:09:36.321Z,4.22
2018-03-14T05:12:02.481Z,4.24
2018-03-14T05:14:28.651Z,4.22
2018-03-14T05:16:55.021Z,4.25
2018-03-14T05:19:21.247Z,4.26
2018-03-14T05:21:47.443Z,4.30
2018-03-14T05:24:13.656Z,4.33
2018-03-14T05:26:39.921Z,4.34
2018-03-14T05:29:06.069Z,4.38
2018-03-14T05:31:32.202Z,4.40
2018-03-14T05:33:58.431Z,4.39
2018-03-14T05:36:24.616Z,4.39
2018-03-14T05:38:50.768Z,4.44
2018-03-14T05:41:16.992Z,4.44
2018-03-14T05:43:43.209Z,4.46
2018-03-14T05:46:09.413Z,4.47
2018-03-14T05:48:35.625Z,4.51
2018-03-14T05:51:01.740Z,4.54
2018-03-14T05:53:27.894Z,4.56
2018-03-14T05:55:54.162Z,4.59
2018-03-14T05:58:20.327Z,4.61
2018-03-14T06:00:46.493Z,4.63
2018-03-14T06:03:12.759Z,4.59
2018-03-14T06:05:38.964Z,4.63
2018-03-14T06:08:05.131Z,4.61
2018-03-14T06:10:31.268Z,4.60
2018-03-14T06:12:57.470Z,4.59
2018-03-14T06:15:23.794Z,4.60
2018-03-14T06:17:50.008Z,4.51
2018-03-14T06:20:16.162Z,4.49
2018-03-14T06:22:42.318Z,4.47
2018-03-14T06:25:08.560Z,4.45
2018-03-14T06:27:34.717Z,4.47
2018-03-14T06:30:00.898Z,4.46
2018-03-14T06:32:27.079Z,4.44
2018-03-14T06:34:53.241Z,4.40
2018-03-14T06:37:19.478Z,4.39
2018-03-14T06:39:45.626Z,4.44
2018-03-14T06:42:11.761Z,4.40
2018-03-14T06:44:37.947Z,4.40
2018-03-14T06:47:04.164Z,4.43
2018-03-14T06:49:30.368Z,4.42
2018-03-14T06:51:56.592Z,4.41
2018-03-14T06:54:22.738Z,4.41
2018-03-14T06:56:48.969Z,4.45
2018-03-14T06:59:27.299Z,4.41
2018-03-14T07:02:05.609Z,4.51
2018-03-14T07:04:37.959Z,4.55
2018-03-14T07:07:04.121Z,4.56
2018-03-14T07:09:30.266Z,4.60
2018-03-14T07:11:56.510Z,4.64
2018-03-14T07:14:22.772Z,4.67
2018-03-14T07:16:48.959Z,4.71
2018-03-14T07:19:15.179Z,4.75
2018-03-14T07:21:41.309Z,4.80
2018-03-14T07:24:07.471Z,4.85
2018-03-14T07:26:33.745Z,4.91
2018-03-14T07:28:59.900Z,4.93
2018-03-14T07:31:26.019Z,5.01
2018-03-14T07:33:52.184Z,5.06
2018-03-14T07:36:18.370Z,5.09
2018-03-14T07:38:44.540Z,5.11
2018-03-14T07:41:10.732Z,5.14
2018-03-14T07:43:36.898Z,5.18
2018-03-14T07:46:03.191Z,5.28
2018-03-14T07:48:29.409Z,5.36
2018-03-14T07:50:55.587Z,5.48
2018-03-14T07:53:21.743Z,5.61
2018-03-14T07:55:47.995Z,5.84
2018-03-14T07:58:14.193Z,6.02
2018-03-14T08:00:40.317Z,6.16
2018-03-14T08:03:06.508Z,6.28
2018-03-14T08:05:32.710Z,6.43
2018-03-14T08:07:58.859Z,6.63
2018-03-14T08:10:25.038Z,6.73
2018-03-14T08:12:51.183Z,6.88
2018-03-14T08:15:17.333Z,7.03
2018-03-14T08:17:43.603Z,7.19
2018-03-14T08:20:09.740Z,7.44
2018-03-14T08:22:35.927Z,7.67
2018-03-14T08:25:02.167Z,8.08
2018-03-14T08:27:28.597Z,8.59
2018-03-14T08:29:54.725Z,9.24
2018-03-14T08:32:20.862Z,10.22
2018-03-14T08:34:47.075Z,11.29
2018-03-14T08:37:13.367Z,12.31
2018-03-14T08:39:39.487Z,13.07
2018-03-14T08:42:05.659Z,14.16
2018-03-14T08:44:31.846Z,14.61
2018-03-14T08:46:58.025Z,15.64
2018-03-14T08:49:24.226Z,15.61
2018-03-14T08:51:50.441Z,15.62
2018-03-14T08:54:16.621Z,16.06
2018-03-14T08:56:42.919Z,16.38
2018-03-14T08:59:09.114Z,15.67
2018-03-14T09:01:35.258Z,15.82
2018-03-14T09:04:01.429Z,15.43
2018-03-14T09:06:27.721Z,14.58
2018-03-14T09:08:53.878Z,14.39
2018-03-14T09:11:20.039Z,13.95
2018-03-14T09:13:46.214Z,13.91
2018-03-14T09:16:12.447Z,13.45
2018-03-14T09:18:38.889Z,13.22
2018-03-14T09:21:05.222Z,13.13
2018-03-14T09:23:31.411Z,12.50
2018-03-14T09:25:57.641Z,12.37
2018-03-14T09:28:24.078Z,12.15
2018-03-14T09:30:50.258Z,12.12
2018-03-14T09:33:16.424Z,12.14
2018-03-14T09:35:42.685Z,12.11
2018-03-14T09:38:08.815Z,12.11
2018-03-14T09:40:35.002Z,11.94
2018-03-14T09:43:01.198Z,12.18
2018-03-14T09:45:27.334Z,12.10
2018-03-14T09:47:53.530Z,12.32
2018-03-14T09:50:19.692Z,12.40
2018-03-14T09:52:45.850Z,12.65
2018-03-14T09:55:12.020Z,12.92
2018-03-14T09:57:38.247Z,12.78
2018-03-14T10:00:04.430Z,12.73
2018-03-14T10:02:30.570Z,12.92
2018-03-14T10:04:56.742Z,12.80
2018-03-14T10:07:22.973Z,13.06
2018-03-14T10:09:49.097Z,13.01
2018-03-14T10:12:15.635Z,12.93
2018-03-14T10:14:41.785Z,12.61
2018-03-14T10:17:07.981Z,12.40
2018-03-14T10:19:34.176Z,12.25
2018-03-14T10:22:00.328Z,12.05
2018-03-14T10:24:26.532Z,12.09
2018-03-14T10:26:52.822Z,12.07
2018-03-14T10:29:19.008Z,12.17
2018-03-14T10:31:45.195Z,12.08
2018-03-14T10:34:11.410Z,12.05
2018-03-14T10:36:38.776Z,12.09
2018-03-14T10:39:05.245Z,12.22
2018-03-14T10:41:31.443Z,12.22
2018-03-14T10:43:59.102Z,12.16
2018-03-14T10:46:25.323Z,12.34
2018-03-14T10:48:51.540Z,12.32
2018-03-14T10:51:17.663Z,12.28
2018-03-14T10:53:45.421Z,12.28
2018-03-14T10:56:11.650Z,12.30
2018-03-14T10:58:37.882Z,12.27
2018-03-14T11:01:10.055Z,12.30
2018-03-14T11:03:40.161Z,12.30
2018-03-14T11:06:06.376Z,12.19
2018-03-14T11:08:32.592Z,12.17
2018-03-14T11:10:58.799Z,12.22
2018-03-14T11:13:24.929Z,12.31
2018-03-14T11:15:51.086Z,12.36
2018-03-14T11:18:17.834Z,12.37
2018-03-14T11:20:45.174Z,12.45
2018-03-14T11:23:11.351Z,12.49
2018-03-14T11:25:37.548Z,12.45
2018-03-14T11:28:03.814Z,12.57
2018-03-14T11:30:29.942Z,12.67
2018-03-14T11:32:56.224Z,12.82
2018-03-14T11:35:22.384Z,12.90
2018-03-14T11:37:49.621Z,13.00
2018-03-14T11:40:19.847Z,13.13
2018-03-14T11:42:45.995Z,12.95
2018-03-14T11:45:12.242Z,12.83
2018-03-14T11:47:39.203Z,12.91
2018-03-14T11:50:05.389Z,13.02
2018-03-14T11:52:31.612Z,13.00
2018-03-14T11:54:57.806Z,13.06
2018-03-14T11:57:23.984Z,13.02
2018-03-14T11:59:50.116Z,13.12
2018-03-14T12:02:16.285Z,13.33
2018-03-14T12:04:43.286Z,13.27
2018-03-14T12:07:09.488Z,13.30
2018-03-14T12:09:35.645Z,13.12
2018-03-14T12:12:01.881Z,13.18
2018-03-14T12:14:28.103Z,13.13
2018-03-14T12:16:54.340Z,13.17
2018-03-14T12:19:20.548Z,13.06
2018-03-14T12:21:46.688Z,13.03
2018-03-14T12:24:12.885Z,12.99
2018-03-14T12:26:39.131Z,12.68
2018-03-14T12:29:05.283Z,12.78
2018-03-14T12:31:31.476Z,13.12
2018-03-14T12:33:57.668Z,13.12
2018-03-14T12:36:23.805Z,12.91
2018-03-14T12:38:50.044Z,13.04
2018-03-14T12:41:16.247Z,13.34
2018-03-14T12:43:42.425Z,13.64
2018-03-14T12:46:08.622Z,13.83
2018-03-14T12:48:34.806Z,14.03
2018-03-14T12:51:01.048Z,14.42
2018-03-14T12:53:27.209Z,14.63
2018-03-14T12:55:53.378Z,14.53
2018-03-14T12:58:19.618Z,15.18
2018-03-14T13:00:45.759Z,16.31
2018-03-14T13:03:12.001Z,17.06
2018-03-14T13:05:38.145Z,17.19
2018-03-14T13:08:04.348Z,18.28
2018-03-14T13:10:30.487Z,18.22
2018-03-14T13:12:56.670Z,18.58
2018-03-14T13:15:22.896Z,17.43
2018-03-14T13:17:49.107Z,17.36
2018-03-14T13:20:15.250Z,16.84
2018-03-14T13:22:41.419Z,17.41
2018-03-14T13:25:07.617Z,17.94
2018-03-14T13:27:33.829Z,18.18
2018-03-14T13:30:00.021Z,18.78
2018-03-14T13:32:26.197Z,18.60
2018-03-14T13:34:52.454Z,18.44
2018-03-14T13:37:18.627Z,18.21
2018-03-14T13:39:44.801Z,18.24
2018-03-14T13:42:10.956Z,17.72
2018-03-14T13:44:37.173Z,16.97
2018-03-14T13:47:03.434Z,17.07
2018-03-14T13:49:29.639Z,16.43
2018-03-14T13:51:55.782Z,15.97
2018-03-14T13:54:21.941Z,15.73
2018-03-14T13:56:48.139Z,15.65
2018-03-14T13:59:14.413Z,15.61
2018-03-14T14:01:40.595Z,15.56
2018-03-14T14:04:06.756Z,15.53
2018-03-14T14:06:32.953Z,15.49
2018-03-14T14:08:59.152Z,15.18
2018-03-14T14:11:25.681Z,15.12
2018-03-14T14:13:51.907Z,14.84
2018-03-14T14:16:18.047Z,14.63
2018-03-14T14:18:44.243Z,14.69
2018-03-14T14:21:10.427Z,14.73
2018-03-14T14:23:36.601Z,14.63
2018-03-14T14:26:02.793Z,14.72
2018-03-14T14:28:29.019Z,14.78
2018-03-14T14:30:55.165Z,14.80
2018-03-14T14:33:21.344Z,14.69
2018-03-14T14:35:47.529Z,14.22
2018-03-14T14:38:13.740Z,14.01
2018-03-14T14:40:39.911Z,14.01
2018-03-14T14:43:06.697Z,13.88
2018-03-14T14:45:32.834Z,13.85
2018-03-14T14:47:59.743Z,13.95
2018-03-14T14:50:26.100Z,14.05
2018-03-14T14:52:52.222Z,14.02
2018-03-14T14:55:18.408Z,13.92
2018-03-14T14:57:45.595Z,13.99
2018-03-14T15:00:11.736Z,13.97
2018-03-14T15:02:37.874Z,13.88
2018-03-14T15:05:04.136Z,13.86
2018-03-14T15:07:30.444Z,13.83
2018-03-14T15:09:56.618Z,13.89
2018-03-14T15:12:22.813Z,13.84
2018-03-14T15:14:49.007Z,13.87
2018-03-14T15:17:15.324Z,13.88
2018-03-14T15:19:41.553Z,13.76
2018-03-14T15:22:07.715Z,13.69
2018-03-14T15:24:33.875Z,13.65
2018-03-14T15:27:00.029Z,13.54
2018-03-14T15:29:26.249Z,13.37
2018-03-14T15:31:52.376Z,13.19
2018-03-14T15:34:18.558Z,13.11
2018-03-14T15:36:44.758Z,13.04
2018-03-14T15:39:10.952Z,12.97
2018-03-14T15:41:37.108Z,12.82
2018-03-14T15:44:03.308Z,12.75
2018-03-14T15:46:29.437Z,12.68
2018-03-14T15:48:55.680Z,12.56
2018-03-14T15:51:21.877Z,12.57
2018-03-14T15:53:48.081Z,12.59
2018-03-14T15:56:14.282Z,12.66
2018-03-14T15:58:40.488Z,12.70
2018-03-14T16:01:06.664Z,12.81
2018-03-14T16:03:32.865Z,12.94
2018-03-14T16:05:58.998Z,13.01
2018-03-14T16:08:25.180Z,13.04
2018-03-14T16:10:51.400Z,13.06
2018-03-14T16:13:17.545Z,13.09
2018-03-14T16:15:43.699Z,13.22
2018-03-14T16:18:09.930Z,13.32
2018-03-14T16:20:36.101Z,13.33
2018-03-14T16:23:02.307Z,13.38
2018-03-14T16:25:28.505Z,13.35
2018-03-14T16:27:54.642Z,13.29
2018-03-14T16:30:20.860Z,13.25
2018-03-14T16:32:47.024Z,13.13
2018-03-14T16:35:13.333Z,13.04
2018-03-14T16:37:39.535Z,13.04
2018-03-14T16:40:05.754Z,12.98
2018-03-14T16:42:31.896Z,12.92
2018-03-14T16:44:58.049Z,12.80
2018-03-14T16:47:24.248Z,12.80
2018-03-14T16:49:50.720Z,12.77
2018-03-14T16:52:16.875Z,12.72
2018-03-14T16:54:43.054Z,12.65
2018-03-14T16:57:09.226Z,12.58
2018-03-14T16:59:35.678Z,12.49
2018-03-14T17:02:01.879Z,12.47
2018-03-14T17:04:28.057Z,12.39
2018-03-14T17:06:54.222Z,12.32
2018-03-14T17:09:20.429Z,12.23
2018-03-14T17:11:46.623Z,12.15
2018-03-14T17:14:12.765Z,12.08
2018-03-14T17:16:38.939Z,12.02
2018-03-14T17:19:05.168Z,11.98
2018-03-14T17:21:31.314Z,11.93
2018-03-14T17:23:57.496Z,11.83
2018-03-14T17:26:23.620Z,11.72
2018-03-14T17:28:49.899Z,11.67
2018-03-14T17:31:16.061Z,11.59
2018-03-14T17:33:42.215Z,11.52
2018-03-14T17:36:08.363Z,11.42
2018-03-14T17:38:34.683Z,11.36
2018-03-14T17:41:00.782Z,11.34
2018-03-14T17:43:26.986Z,11.26
2018-03-14T17:45:53.123Z,11.17
2018-03-14T17:48:19.764Z,11.09
2018-03-14T17:50:45.993Z,11.00
2018-03-14T17:53:12.149Z,10.97
2018-03-14T17:55:38.348Z,10.90
2018-03-14T17:58:04.542Z,10.87
2018-03-14T18:00:30.778Z,10.81
2018-03-14T18:02:56.938Z,10.76
2018-03-14T18:05:23.093Z,10.71
2018-03-14T18:07:49.293Z,10.70
2018-03-14T18:10:15.576Z,10.61
2018-03-14T18:12:41.776Z,10.69
2018-03-14T18:15:07.967Z,10.63
2018-03-14T18:17:34.167Z,10.60
2018-03-14T18:20:00.411Z,10.55
2018-03-14T18:22:26.601Z,10.56
2018-03-14T18:24:52.784Z,10.55
2018-03-14T18:27:18.950Z,10.47
2018-03-14T18:29:45.190Z,10.46
2018-03-14T18:32:11.349Z,10.40
2018-03-14T18:34:37.520Z,10.39
2018-03-14T18:37:03.758Z,10.37
2018-03-14T18:39:29.980Z,10.27
2018-03-14T18:41:56.148Z,10.31
2018-03-14T18:44:22.273Z,10.28
2018-03-14T18:46:48.609Z,10.26
2018-03-14T18:49:14.866Z,10.18
2018-03-14T18:51:41.077Z,10.15
2018-03-14T18:54:07.285Z,10.10
2018-03-14T18:56:33.479Z,10.10
2018-03-14T18:58:59.741Z,10.08
2018-03-14T19:01:25.964Z,10.02
2018-03-14T19:03:52.161Z,9.98
2018-03-14T19:06:18.312Z,9.93
2018-03-14T19:08:44.571Z,9.94
2018-03-14T19:11:10.772Z,9.88
2018-03-14T19:13:36.990Z,9.85
2018-03-14T19:16:03.263Z,9.79
2018-03-14T19:18:29.452Z,9.74
2018-03-14T19:20:55.620Z,9.68
2018-03-14T19:23:21.791Z,9.66
2018-03-14T19:25:48.013Z,9.62
2018-03-14T19:28:14.184Z,9.60
2018-03-14T19:30:40.375Z,9.61
2018-03-14T19:33:06.612Z,9.57
2018-03-14T19:35:32.760Z,9.55
2018-03-14T19:37:58.907Z,9.49
2018-03-14T19:40:25.156Z,9.42
2018-03-14T19:42:51.259Z,9.46
2018-03-14T19:45:17.399Z,9.45
2018-03-14T19:47:43.644Z,9.45
2018-03-14T19:50:09.984Z,9.47
2018-03-14T19:52:36.154Z,9.41
2018-03-14T19:55:02.390Z,9.46
2018-03-14T19:57:28.523Z,9.46
2018-03-14T19:59:54.765Z,9.41
2018-03-14T20:02:21.001Z,9.37
2018-03-14T20:04:47.258Z,9.40
2018-03-14T20:07:13.365Z,9.39
2018-03-14T20:09:39.739Z,9.33
2018-03-14T20:12:05.920Z,9.37
2018-03-14T20:14:32.095Z,9.30
2018-03-14T20:16:58.225Z,9.26
2018-03-14T20:19:25.382Z,9.27
2018-03-14T20:21:51.512Z,9.25
2018-03-14T20:24:17.632Z,9.22
2018-03-14T20:26:43.790Z,9.22
2018-03-14T20:29:09.992Z,9.27
2018-03-14T20:31:36.099Z,9.29
2018-03-14T20:34:02.289Z,9.25
2018-03-14T20:36:28.613Z,9.21
2018-03-14T20:38:54.917Z,9.17
2018-03-14T20:41:21.152Z,9.14
2018-03-14T20:43:47.271Z,9.15
2018-03-14T20:46:13.583Z,9.15
2018-03-14T20:48:39.760Z,9.15
2018-03-14T20:51:05.933Z,9.16
2018-03-14T20:53:32.122Z,9.11
2018-03-14T20:55:58.279Z,9.12
2018-03-14T20:58:24.417Z,9.10
2018-03-14T21:00:50.599Z,9.06
2018-03-14T21:03:16.712Z,9.03
2018-03-14T21:05:42.833Z,9.07
2018-03-14T21:08:09.013Z,9.05
2018-03-14T21:10:35.204Z,8.99
2018-03-14T21:13:01.311Z,8.96
2018-03-14T21:15:27.473Z,8.95
2018-03-14T21:17:53.651Z,8.94
2018-03-14T21:20:19.819Z,8.98
2018-03-14T21:22:45.973Z,8.98
2018-03-14T21:25:12.059Z,8.96
2018-03-14T21:27:38.173Z,8.95
2018-03-14T21:30:04.374Z,8.90
2018-03-14T21:32:30.492Z,8.88
2018-03-14T21:34:56.585Z,8.86
2018-03-14T21:37:22.716Z,8.87
2018-03-14T21:39:48.869Z,8.86
2018-03-14T21:42:14.997Z,8.84
2018-03-14T21:44:41.135Z,8.81
2018-03-14T21:47:07.285Z,8.79
2018-03-14T21:49:33.438Z,8.86
2018-03-14T21:51:59.586Z,8.87
2018-03-14T21:54:25.733Z,8.87
2018-03-14T21:56:51.849Z,8.84
2018-03-14T21:59:17.970Z,8.81
2018-03-14T22:01:44.114Z,8.79
2018-03-14T22:04:10.195Z,8.78
2018-03-14T22:06:36.332Z,8.75
2018-03-14T22:09:02.475Z,8.72
2018-03-14T22:11:28.744Z,8.72
2018-03-14T22:13:54.821Z,8.77
2018-03-14T22:16:20.929Z,8.74
2018-03-14T22:18:47.100Z,8.77
2018-03-14T22:21:13.316Z,8.82
2018-03-14T22:23:39.428Z,8.78
2018-03-14T22:26:05.557Z,8.72
2018-03-14T22:28:31.703Z,8.77
2018-03-14T22:30:57.849Z,8.71
2018-03-14T22:33:23.935Z,8.73
2018-03-14T22:35:50.053Z,8.70
2018-03-14T22:38:16.187Z,8.65
2018-03-14T22:40:42.318Z,8.60
2018-03-14T22:43:08.407Z,8.56
2018-03-14T22:45:34.530Z,8.53
2018-03-14T22:48:00.709Z,8.54
2018-03-14T22:50:26.882Z,8.51
2018-03-14T22:52:53.021Z,8.50
2018-03-14T22:55:19.115Z,8.50
2018-03-14T22:57:45.218Z,8.44
2018-03-14T23:00:11.373Z,8.41
2018-03-14T23:02:37.475Z,8.38
2018-03-14T23:05:03.635Z,8.39
2018-03-14T23:07:29.765Z,8.37
2018-03-14T23:09:55.892Z,8.38
2018-03-14T23:12:21.994Z,8.33
2018-03-14T23:14:48.108Z,8.33
2018-03-14T23:17:14.252Z,8.28
2018-03-14T23:19:40.415Z,8.30
2018-03-14T23:22:06.590Z,8.26
2018-03-14T23:24:32.715Z,8.22
2018-03-14T23:26:58.820Z,8.17
2018-03-14T23:29:24.917Z,8.13
2018-03-14T23:31:51.135Z,8.09
2018-03-14T23:34:17.227Z,8.06
2018-03-14T23:36:43.324Z,8.01
2018-03-14T23:39:09.476Z,7.99
2018-03-14T23:41:35.652Z,7.95
2018-03-14T23:44:01.759Z,7.91
2018-03-14T23:46:27.884Z,7.93
2018-03-14T23:48:54.046Z,7.91
2018-03-14T23:51:20.210Z,7.91
2018-03-14T23:53:46.318Z,7.88
2018-03-14T23:56:12.402Z,7.88
2018-03-14T23:58:38.558Z,7.86
